sensor_id;sensor_type;location;lat;lon;timestamp;P1;durP1;ratioP1;P2;durP2;ratioP2
18651;SDS011;9455;54.302;10.124;2023-07-20T00:00:13;1.30;;;1.20;;
18651;SDS011;9455;54.302;10.124;2023-07-20T00:02:40;3.27;;;1.87;;
18651;SDS011;9455;54.302;10.124;2023-07-20T00:05:07;0.73;;;0.73;;
18651;SDS011;9455;54.302;10.124;2023-07-20T00:07:35;1.37;;;1.30;;
18651;SDS011;9455;54.302;10.124;2023-07-20T00:10:01;1.63;;;1.53;;
18651;SDS011;9455;54.302;10.124;2023-07-20T00:12:28;2.40;;;1.00;;
18651;SDS011;9455;54.302;10.124;2023-07-20T00:14:54;2.80;;;1.27;;
18651;SDS011;9455;54.302;10.124;2023-07-20T00:17:21;1.90;;;1.33;;
18651;SDS011;9455;54.302;10.124;2023-07-20T00:19:48;1.50;;;1.07;;
18651;SDS011;9455;54.302;10.124;2023-07-20T00:22:14;1.70;;;1.40;;
18651;SDS011;9455;54.302;10.124;2023-07-20T00:24:42;1.10;;;1.10;;
18651;SDS011;9455;54.302;10.124;2023-07-20T00:27:09;1.20;;;1.20;;
18651;SDS011;9455;54.302;10.124;2023-07-20T00:29:35;3.20;;;1.37;;
18651;SDS011;9455;54.302;10.124;2023-07-20T00:32:02;1.20;;;1.20;;
18651;SDS011;9455;54.302;10.124;2023-07-20T00:34:31;1.30;;;1.30;;
18651;SDS011;9455;54.302;10.124;2023-07-20T00:36:57;1.70;;;1.60;;
18651;SDS011;9455;54.302;10.124;2023-07-20T00:39:24;2.67;;;1.40;;
18651;SDS011;9455;54.302;10.124;2023-07-20T00:41:52;1.30;;;1.30;;
18651;SDS011;9455;54.302;10.124;2023-07-20T00:44:18;1.30;;;1.20;;
18651;SDS011;9455;54.302;10.124;2023-07-20T00:46:45;1.27;;;1.27;;
18651;SDS011;9455;54.302;10.124;2023-07-20T00:49:13;2.97;;;1.43;;
18651;SDS011;9455;54.302;10.124;2023-07-20T00:51:39;2.50;;;1.90;;
18651;SDS011;9455;54.302;10.124;2023-07-20T00:54:07;1.33;;;1.33;;
18651;SDS011;9455;54.302;10.124;2023-07-20T00:56:34;6.47;;;1.40;;
18651;SDS011;9455;54.302;10.124;2023-07-20T00:59:02;1.60;;;1.50;;
18651;SDS011;9455;54.302;10.124;2023-07-20T01:01:28;4.33;;;1.60;;
18651;SDS011;9455;54.302;10.124;2023-07-20T01:03:55;5.43;;;1.67;;
18651;SDS011;9455;54.302;10.124;2023-07-20T01:06:24;4.93;;;1.50;;
18651;SDS011;9455;54.302;10.124;2023-07-20T01:08:57;2.20;;;1.67;;
18651;SDS011;9455;54.302;10.124;2023-07-20T01:11:35;5.30;;;1.70;;
18651;SDS011;9455;54.302;10.124;2023-07-20T01:14:06;1.67;;;1.57;;
18651;SDS011;9455;54.302;10.124;2023-07-20T01:16:34;3.40;;;1.60;;
18651;SDS011;9455;54.302;10.124;2023-07-20T01:19:00;1.47;;;1.43;;
18651;SDS011;9455;54.302;10.124;2023-07-20T01:21:28;2.70;;;1.57;;
18651;SDS011;9455;54.302;10.124;2023-07-20T01:27:23;1.20;;;1.20;;
18651;SDS011;9455;54.302;10.124;2023-07-20T01:33:18;1.33;;;1.10;;
18651;SDS011;9455;54.302;10.124;2023-07-20T01:35:48;2.27;;;1.60;;
18651;SDS011;9455;54.302;10.124;2023-07-20T01:38:19;1.80;;;1.70;;
18651;SDS011;9455;54.302;10.124;2023-07-20T01:40:46;1.57;;;1.20;;
18651;SDS011;9455;54.302;10.124;2023-07-20T01:43:13;1.40;;;1.40;;
18651;SDS011;9455;54.302;10.124;2023-07-20T01:45:40;2.80;;;1.50;;
18651;SDS011;9455;54.302;10.124;2023-07-20T01:48:06;1.93;;;1.83;;
18651;SDS011;9455;54.302;10.124;2023-07-20T01:50:34;1.47;;;1.40;;
18651;SDS011;9455;54.302;10.124;2023-07-20T01:53:01;1.37;;;1.37;;
18651;SDS011;9455;54.302;10.124;2023-07-20T01:55:28;3.53;;;1.67;;
18651;SDS011;9455;54.302;10.124;2023-07-20T01:57:54;2.03;;;1.93;;
18651;SDS011;9455;54.302;10.124;2023-07-20T02:00:21;1.50;;;1.50;;
18651;SDS011;9455;54.302;10.124;2023-07-20T02:02:49;2.47;;;1.57;;
18651;SDS011;9455;54.302;10.124;2023-07-20T02:05:16;1.90;;;1.80;;
18651;SDS011;9455;54.302;10.124;2023-07-20T02:07:44;3.53;;;1.83;;
18651;SDS011;9455;54.302;10.124;2023-07-20T02:10:11;1.67;;;1.63;;
18651;SDS011;9455;54.302;10.124;2023-07-20T02:12:37;4.93;;;1.63;;
18651;SDS011;9455;54.302;10.124;2023-07-20T02:15:04;5.70;;;1.60;;
18651;SDS011;9455;54.302;10.124;2023-07-20T02:17:31;1.67;;;1.63;;
18651;SDS011;9455;54.302;10.124;2023-07-20T02:19:58;1.83;;;1.60;;
18651;SDS011;9455;54.302;10.124;2023-07-20T02:22:24;1.80;;;1.70;;
18651;SDS011;9455;54.302;10.124;2023-07-20T02:24:52;4.00;;;1.50;;
18651;SDS011;9455;54.302;10.124;2023-07-20T02:27:19;1.57;;;1.47;;
18651;SDS011;9455;54.302;10.124;2023-07-20T02:29:45;1.30;;;1.30;;
18651;SDS011;9455;54.302;10.124;2023-07-20T02:32:12;1.60;;;1.53;;
18651;SDS011;9455;54.302;10.124;2023-07-20T02:34:39;2.20;;;1.27;;
18651;SDS011;9455;54.302;10.124;2023-07-20T02:37:05;1.80;;;1.70;;
18651;SDS011;9455;54.302;10.124;2023-07-20T02:39:32;2.10;;;1.60;;
18651;SDS011;9455;54.302;10.124;2023-07-20T02:42:00;1.03;;;1.03;;
18651;SDS011;9455;54.302;10.124;2023-07-20T02:44:27;1.83;;;1.73;;
18651;SDS011;9455;54.302;10.124;2023-07-20T02:46:53;1.30;;;1.30;;
18651;SDS011;9455;54.302;10.124;2023-07-20T02:49:20;1.40;;;1.40;;
18651;SDS011;9455;54.302;10.124;2023-07-20T02:51:46;2.50;;;1.40;;
18651;SDS011;9455;54.302;10.124;2023-07-20T02:54:13;1.23;;;1.23;;
18651;SDS011;9455;54.302;10.124;2023-07-20T02:56:39;1.13;;;1.13;;
18651;SDS011;9455;54.302;10.124;2023-07-20T02:59:07;4.43;;;1.13;;
18651;SDS011;9455;54.302;10.124;2023-07-20T03:01:34;1.33;;;1.33;;
18651;SDS011;9455;54.302;10.124;2023-07-20T03:04:00;1.67;;;1.57;;
18651;SDS011;9455;54.302;10.124;2023-07-20T03:06:27;2.57;;;1.00;;
18651;SDS011;9455;54.302;10.124;2023-07-20T03:08:54;1.00;;;1.00;;
18651;SDS011;9455;54.302;10.124;2023-07-20T03:11:21;1.17;;;1.07;;
18651;SDS011;9455;54.302;10.124;2023-07-20T03:13:47;3.13;;;1.40;;
18651;SDS011;9455;54.302;10.124;2023-07-20T03:16:17;1.13;;;1.13;;
18651;SDS011;9455;54.302;10.124;2023-07-20T03:18:45;1.70;;;1.23;;
18651;SDS011;9455;54.302;10.124;2023-07-20T03:21:12;1.30;;;1.20;;
18651;SDS011;9455;54.302;10.124;2023-07-20T03:23:39;2.60;;;1.30;;
18651;SDS011;9455;54.302;10.124;2023-07-20T03:26:06;3.63;;;1.30;;
18651;SDS011;9455;54.302;10.124;2023-07-20T03:28:33;1.60;;;1.50;;
18651;SDS011;9455;54.302;10.124;2023-07-20T03:31:00;1.73;;;1.57;;
18651;SDS011;9455;54.302;10.124;2023-07-20T03:33:29;1.30;;;1.30;;
18651;SDS011;9455;54.302;10.124;2023-07-20T03:35:57;1.20;;;1.17;;
18651;SDS011;9455;54.302;10.124;2023-07-20T03:38:24;1.73;;;1.37;;
18651;SDS011;9455;54.302;10.124;2023-07-20T03:40:52;1.00;;;1.00;;
18651;SDS011;9455;54.302;10.124;2023-07-20T03:43:20;1.77;;;1.00;;
18651;SDS011;9455;54.302;10.124;2023-07-20T03:45:47;1.07;;;1.07;;
18651;SDS011;9455;54.302;10.124;2023-07-20T03:48:14;1.40;;;1.30;;
18651;SDS011;9455;54.302;10.124;2023-07-20T03:50:43;1.40;;;1.17;;
18651;SDS011;9455;54.302;10.124;2023-07-20T03:53:10;1.10;;;1.10;;
18651;SDS011;9455;54.302;10.124;2023-07-20T03:55:37;1.20;;;1.20;;
18651;SDS011;9455;54.302;10.124;2023-07-20T03:58:05;1.40;;;1.30;;
18651;SDS011;9455;54.302;10.124;2023-07-20T04:00:32;1.57;;;1.27;;
18651;SDS011;9455;54.302;10.124;2023-07-20T04:02:58;2.40;;;1.07;;
18651;SDS011;9455;54.302;10.124;2023-07-20T04:05:25;1.00;;;1.00;;
18651;SDS011;9455;54.302;10.124;2023-07-20T04:07:53;1.00;;;1.00;;
18651;SDS011;9455;54.302;10.124;2023-07-20T04:10:19;1.33;;;1.17;;
18651;SDS011;9455;54.302;10.124;2023-07-20T04:12:46;1.17;;;1.13;;
18651;SDS011;9455;54.302;10.124;2023-07-20T04:15:13;2.93;;;1.40;;
18651;SDS011;9455;54.302;10.124;2023-07-20T04:17:40;4.87;;;1.53;;
18651;SDS011;9455;54.302;10.124;2023-07-20T04:20:07;1.20;;;1.20;;
18651;SDS011;9455;54.302;10.124;2023-07-20T04:22:34;1.73;;;1.10;;
18651;SDS011;9455;54.302;10.124;2023-07-20T04:25:02;1.03;;;1.03;;
18651;SDS011;9455;54.302;10.124;2023-07-20T04:27:29;1.23;;;1.23;;
18651;SDS011;9455;54.302;10.124;2023-07-20T04:29:57;1.47;;;1.40;;
18651;SDS011;9455;54.302;10.124;2023-07-20T04:32:24;2.40;;;1.43;;
18651;SDS011;9455;54.302;10.124;2023-07-20T04:34:51;6.20;;;1.27;;
18651;SDS011;9455;54.302;10.124;2023-07-20T04:37:18;1.10;;;1.10;;
18651;SDS011;9455;54.302;10.124;2023-07-20T04:39:45;1.00;;;1.00;;
18651;SDS011;9455;54.302;10.124;2023-07-20T04:42:13;1.07;;;1.07;;
18651;SDS011;9455;54.302;10.124;2023-07-20T04:44:40;0.80;;;0.80;;
18651;SDS011;9455;54.302;10.124;2023-07-20T04:47:07;1.03;;;1.03;;
18651;SDS011;9455;54.302;10.124;2023-07-20T04:49:34;1.07;;;1.07;;
18651;SDS011;9455;54.302;10.124;2023-07-20T04:52:01;0.77;;;0.77;;
18651;SDS011;9455;54.302;10.124;2023-07-20T04:54:28;2.23;;;1.20;;
18651;SDS011;9455;54.302;10.124;2023-07-20T04:56:55;1.17;;;0.83;;
18651;SDS011;9455;54.302;10.124;2023-07-20T04:59:23;1.90;;;1.33;;
18651;SDS011;9455;54.302;10.124;2023-07-20T05:01:49;3.60;;;1.00;;
18651;SDS011;9455;54.302;10.124;2023-07-20T05:04:16;0.60;;;0.60;;
18651;SDS011;9455;54.302;10.124;2023-07-20T05:06:43;4.63;;;1.30;;
18651;SDS011;9455;54.302;10.124;2023-07-20T05:09:09;4.03;;;1.00;;
18651;SDS011;9455;54.302;10.124;2023-07-20T05:11:36;2.00;;;0.70;;
18651;SDS011;9455;54.302;10.124;2023-07-20T05:14:02;5.70;;;0.70;;
18651;SDS011;9455;54.302;10.124;2023-07-20T05:16:30;0.90;;;0.90;;
18651;SDS011;9455;54.302;10.124;2023-07-20T05:18:57;0.50;;;0.50;;
18651;SDS011;9455;54.302;10.124;2023-07-20T05:21:23;0.40;;;0.40;;
18651;SDS011;9455;54.302;10.124;2023-07-20T05:23:50;0.40;;;0.40;;
18651;SDS011;9455;54.302;10.124;2023-07-20T05:26:16;4.53;;;0.70;;
18651;SDS011;9455;54.302;10.124;2023-07-20T05:28:43;3.03;;;0.77;;
18651;SDS011;9455;54.302;10.124;2023-07-20T05:31:09;2.17;;;0.83;;
18651;SDS011;9455;54.302;10.124;2023-07-20T05:33:37;1.07;;;0.93;;
18651;SDS011;9455;54.302;10.124;2023-07-20T05:36:04;1.90;;;1.07;;
18651;SDS011;9455;54.302;10.124;2023-07-20T05:38:31;2.73;;;0.53;;
18651;SDS011;9455;54.302;10.124;2023-07-20T05:40:59;4.43;;;0.90;;
18651;SDS011;9455;54.302;10.124;2023-07-20T05:43:27;0.80;;;0.60;;
18651;SDS011;9455;54.302;10.124;2023-07-20T05:45:53;0.97;;;0.80;;
18651;SDS011;9455;54.302;10.124;2023-07-20T05:48:20;2.10;;;0.70;;
18651;SDS011;9455;54.302;10.124;2023-07-20T05:50:48;2.90;;;0.73;;
18651;SDS011;9455;54.302;10.124;2023-07-20T05:53:14;0.80;;;0.80;;
18651;SDS011;9455;54.302;10.124;2023-07-20T05:55:41;1.13;;;0.80;;
18651;SDS011;9455;54.302;10.124;2023-07-20T05:58:08;1.33;;;0.93;;
18651;SDS011;9455;54.302;10.124;2023-07-20T06:00:34;1.43;;;0.90;;
18651;SDS011;9455;54.302;10.124;2023-07-20T06:03:01;4.97;;;0.90;;
18651;SDS011;9455;54.302;10.124;2023-07-20T06:05:29;4.50;;;1.30;;
18651;SDS011;9455;54.302;10.124;2023-07-20T06:07:57;5.77;;;1.13;;
18651;SDS011;9455;54.302;10.124;2023-07-20T06:10:25;1.77;;;1.20;;
18651;SDS011;9455;54.302;10.124;2023-07-20T06:12:52;5.30;;;0.97;;
18651;SDS011;9455;54.302;10.124;2023-07-20T06:15:24;1.67;;;1.40;;
18651;SDS011;9455;54.302;10.124;2023-07-20T06:17:51;3.60;;;1.10;;
18651;SDS011;9455;54.302;10.124;2023-07-20T06:20:20;6.03;;;1.23;;
18651;SDS011;9455;54.302;10.124;2023-07-20T06:22:47;4.87;;;1.40;;
18651;SDS011;9455;54.302;10.124;2023-07-20T06:25:15;2.37;;;1.53;;
18651;SDS011;9455;54.302;10.124;2023-07-20T06:27:42;1.73;;;1.10;;
18651;SDS011;9455;54.302;10.124;2023-07-20T06:30:09;1.27;;;1.23;;
18651;SDS011;9455;54.302;10.124;2023-07-20T06:32:37;1.73;;;1.00;;
18651;SDS011;9455;54.302;10.124;2023-07-20T06:35:04;2.00;;;1.30;;
18651;SDS011;9455;54.302;10.124;2023-07-20T06:37:32;1.97;;;1.10;;
18651;SDS011;9455;54.302;10.124;2023-07-20T06:39:59;7.43;;;1.50;;
18651;SDS011;9455;54.302;10.124;2023-07-20T06:42:26;1.10;;;1.00;;
18651;SDS011;9455;54.302;10.124;2023-07-20T06:44:53;1.97;;;1.10;;
18651;SDS011;9455;54.302;10.124;2023-07-20T06:47:20;5.50;;;1.47;;
18651;SDS011;9455;54.302;10.124;2023-07-20T06:49:46;3.70;;;1.10;;
18651;SDS011;9455;54.302;10.124;2023-07-20T06:52:13;4.17;;;1.63;;
18651;SDS011;9455;54.302;10.124;2023-07-20T06:54:39;5.30;;;2.00;;
18651;SDS011;9455;54.302;10.124;2023-07-20T06:57:06;5.10;;;1.20;;
18651;SDS011;9455;54.302;10.124;2023-07-20T06:59:34;4.20;;;1.13;;
18651;SDS011;9455;54.302;10.124;2023-07-20T07:02:00;7.73;;;1.33;;
18651;SDS011;9455;54.302;10.124;2023-07-20T07:04:27;4.07;;;0.97;;
18651;SDS011;9455;54.302;10.124;2023-07-20T07:06:54;3.43;;;1.10;;
18651;SDS011;9455;54.302;10.124;2023-07-20T07:09:20;3.83;;;1.40;;
18651;SDS011;9455;54.302;10.124;2023-07-20T07:11:47;2.90;;;1.10;;
18651;SDS011;9455;54.302;10.124;2023-07-20T07:14:13;1.43;;;1.30;;
18651;SDS011;9455;54.302;10.124;2023-07-20T07:16:42;17.93;;;1.30;;
18651;SDS011;9455;54.302;10.124;2023-07-20T07:19:08;1.97;;;1.20;;
18651;SDS011;9455;54.302;10.124;2023-07-20T07:21:35;1.87;;;1.03;;
18651;SDS011;9455;54.302;10.124;2023-07-20T07:24:01;1.43;;;1.43;;
18651;SDS011;9455;54.302;10.124;2023-07-20T07:26:28;3.17;;;1.07;;
18651;SDS011;9455;54.302;10.124;2023-07-20T07:28:55;9.93;;;1.10;;
18651;SDS011;9455;54.302;10.124;2023-07-20T07:31:22;2.93;;;1.17;;
18651;SDS011;9455;54.302;10.124;2023-07-20T07:33:50;2.57;;;0.87;;
18651;SDS011;9455;54.302;10.124;2023-07-20T07:36:16;4.63;;;1.27;;
18651;SDS011;9455;54.302;10.124;2023-07-20T07:38:43;4.83;;;1.80;;
18651;SDS011;9455;54.302;10.124;2023-07-20T07:41:09;0.90;;;0.90;;
18651;SDS011;9455;54.302;10.124;2023-07-20T07:43:36;7.03;;;2.20;;
18651;SDS011;9455;54.302;10.124;2023-07-20T07:46:03;2.20;;;1.07;;
18651;SDS011;9455;54.302;10.124;2023-07-20T07:48:30;4.77;;;1.03;;
18651;SDS011;9455;54.302;10.124;2023-07-20T07:50:57;2.90;;;1.13;;
18651;SDS011;9455;54.302;10.124;2023-07-20T07:53:24;8.60;;;1.00;;
18651;SDS011;9455;54.302;10.124;2023-07-20T07:55:51;4.73;;;1.00;;
18651;SDS011;9455;54.302;10.124;2023-07-20T07:58:18;6.40;;;1.10;;
18651;SDS011;9455;54.302;10.124;2023-07-20T08:00:45;4.80;;;0.80;;
18651;SDS011;9455;54.302;10.124;2023-07-20T08:03:12;2.80;;;0.90;;
18651;SDS011;9455;54.302;10.124;2023-07-20T08:05:39;4.47;;;0.97;;
18651;SDS011;9455;54.302;10.124;2023-07-20T08:08:07;3.20;;;0.80;;
18651;SDS011;9455;54.302;10.124;2023-07-20T08:10:34;0.80;;;0.80;;
18651;SDS011;9455;54.302;10.124;2023-07-20T08:13:01;9.93;;;2.10;;
18651;SDS011;9455;54.302;10.124;2023-07-20T08:15:27;3.53;;;0.80;;
18651;SDS011;9455;54.302;10.124;2023-07-20T08:17:54;5.37;;;1.40;;
18651;SDS011;9455;54.302;10.124;2023-07-20T08:20:21;2.30;;;0.80;;
18651;SDS011;9455;54.302;10.124;2023-07-20T08:22:51;1.23;;;0.60;;
18651;SDS011;9455;54.302;10.124;2023-07-20T08:25:19;4.77;;;0.90;;
18651;SDS011;9455;54.302;10.124;2023-07-20T08:27:46;2.23;;;0.80;;
18651;SDS011;9455;54.302;10.124;2023-07-20T08:30:13;1.60;;;1.17;;
18651;SDS011;9455;54.302;10.124;2023-07-20T08:32:39;7.90;;;1.03;;
18651;SDS011;9455;54.302;10.124;2023-07-20T08:35:06;0.53;;;0.53;;
18651;SDS011;9455;54.302;10.124;2023-07-20T08:37:33;5.03;;;0.43;;
18651;SDS011;9455;54.302;10.124;2023-07-20T08:40:00;4.47;;;0.90;;
18651;SDS011;9455;54.302;10.124;2023-07-20T08:42:30;0.27;;;0.27;;
18651;SDS011;9455;54.302;10.124;2023-07-20T08:44:57;5.00;;;0.63;;
18651;SDS011;9455;54.302;10.124;2023-07-20T08:47:24;5.07;;;1.00;;
18651;SDS011;9455;54.302;10.124;2023-07-20T08:49:52;1.17;;;0.80;;
18651;SDS011;9455;54.302;10.124;2023-07-20T08:52:21;1.00;;;0.97;;
18651;SDS011;9455;54.302;10.124;2023-07-20T08:54:48;3.13;;;0.93;;
18651;SDS011;9455;54.302;10.124;2023-07-20T08:57:15;0.53;;;0.53;;
18651;SDS011;9455;54.302;10.124;2023-07-20T08:59:44;4.00;;;0.50;;
18651;SDS011;9455;54.302;10.124;2023-07-20T09:02:11;2.00;;;0.90;;
18651;SDS011;9455;54.302;10.124;2023-07-20T09:04:43;4.53;;;0.57;;
18651;SDS011;9455;54.302;10.124;2023-07-20T09:07:10;8.27;;;0.63;;
18651;SDS011;9455;54.302;10.124;2023-07-20T09:09:39;4.03;;;0.60;;
18651;SDS011;9455;54.302;10.124;2023-07-20T09:12:12;2.20;;;0.60;;
18651;SDS011;9455;54.302;10.124;2023-07-20T09:14:39;4.30;;;0.70;;
18651;SDS011;9455;54.302;10.124;2023-07-20T09:17:12;0.73;;;0.50;;
18651;SDS011;9455;54.302;10.124;2023-07-20T09:19:45;0.67;;;0.47;;
18651;SDS011;9455;54.302;10.124;2023-07-20T09:22:12;6.23;;;0.80;;
18651;SDS011;9455;54.302;10.124;2023-07-20T09:24:38;1.10;;;0.40;;
18651;SDS011;9455;54.302;10.124;2023-07-20T09:27:06;3.47;;;0.43;;
18651;SDS011;9455;54.302;10.124;2023-07-20T09:29:34;3.77;;;0.50;;
18651;SDS011;9455;54.302;10.124;2023-07-20T09:32:03;1.37;;;0.40;;
18651;SDS011;9455;54.302;10.124;2023-07-20T09:34:30;3.40;;;0.40;;
18651;SDS011;9455;54.302;10.124;2023-07-20T09:36:57;8.83;;;0.30;;
18651;SDS011;9455;54.302;10.124;2023-07-20T09:39:24;1.10;;;0.30;;
18651;SDS011;9455;54.302;10.124;2023-07-20T09:41:51;0.43;;;0.20;;
18651;SDS011;9455;54.302;10.124;2023-07-20T09:44:17;1.17;;;0.20;;
18651;SDS011;9455;54.302;10.124;2023-07-20T09:46:45;0.83;;;0.20;;
18651;SDS011;9455;54.302;10.124;2023-07-20T09:49:14;0.77;;;0.40;;
18651;SDS011;9455;54.302;10.124;2023-07-20T09:51:42;0.77;;;0.23;;
18651;SDS011;9455;54.302;10.124;2023-07-20T09:54:12;1.07;;;0.30;;
18651;SDS011;9455;54.302;10.124;2023-07-20T09:56:39;0.17;;;0.17;;
18651;SDS011;9455;54.302;10.124;2023-07-20T09:59:08;0.13;;;0.13;;
18651;SDS011;9455;54.302;10.124;2023-07-20T10:01:34;0.73;;;0.60;;
18651;SDS011;9455;54.302;10.124;2023-07-20T10:04:06;1.23;;;0.30;;
18651;SDS011;9455;54.302;10.124;2023-07-20T10:06:36;0.30;;;0.23;;
18651;SDS011;9455;54.302;10.124;2023-07-20T10:09:08;0.17;;;0.17;;
18651;SDS011;9455;54.302;10.124;2023-07-20T10:11:40;0.20;;;0.20;;
18651;SDS011;9455;54.302;10.124;2023-07-20T10:14:10;0.00;;;0.00;;
18651;SDS011;9455;54.302;10.124;2023-07-20T10:16:43;0.37;;;0.20;;
18651;SDS011;9455;54.302;10.124;2023-07-20T10:19:13;0.20;;;0.20;;
18651;SDS011;9455;54.302;10.124;2023-07-20T10:21:51;2.37;;;0.23;;
18651;SDS011;9455;54.302;10.124;2023-07-20T10:24:23;1.33;;;0.20;;
18651;SDS011;9455;54.302;10.124;2023-07-20T10:26:50;3.40;;;0.40;;
18651;SDS011;9455;54.302;10.124;2023-07-20T10:29:18;0.50;;;0.13;;
18651;SDS011;9455;54.302;10.124;2023-07-20T10:31:44;1.90;;;0.30;;
18651;SDS011;9455;54.302;10.124;2023-07-20T10:34:11;1.20;;;0.50;;
18651;SDS011;9455;54.302;10.124;2023-07-20T10:36:43;4.80;;;0.50;;
18651;SDS011;9455;54.302;10.124;2023-07-20T10:39:21;0.23;;;0.23;;
18651;SDS011;9455;54.302;10.124;2023-07-20T10:41:49;0.83;;;0.40;;
18651;SDS011;9455;54.302;10.124;2023-07-20T10:44:19;0.63;;;0.60;;
18651;SDS011;9455;54.302;10.124;2023-07-20T10:46:46;5.30;;;0.80;;
18651;SDS011;9455;54.302;10.124;2023-07-20T10:49:13;3.83;;;0.77;;
18651;SDS011;9455;54.302;10.124;2023-07-20T10:51:41;2.63;;;0.67;;
18651;SDS011;9455;54.302;10.124;2023-07-20T10:54:08;2.67;;;0.63;;
18651;SDS011;9455;54.302;10.124;2023-07-20T10:56:37;6.43;;;0.97;;
18651;SDS011;9455;54.302;10.124;2023-07-20T10:59:04;6.20;;;0.77;;
18651;SDS011;9455;54.302;10.124;2023-07-20T11:01:44;3.40;;;0.67;;
18651;SDS011;9455;54.302;10.124;2023-07-20T11:04:12;3.50;;;0.90;;
18651;SDS011;9455;54.302;10.124;2023-07-20T11:06:41;2.87;;;0.63;;
18651;SDS011;9455;54.302;10.124;2023-07-20T11:09:09;3.50;;;0.60;;
18651;SDS011;9455;54.302;10.124;2023-07-20T11:11:41;4.27;;;0.80;;
18651;SDS011;9455;54.302;10.124;2023-07-20T11:14:09;5.40;;;0.70;;
18651;SDS011;9455;54.302;10.124;2023-07-20T11:16:38;4.17;;;0.67;;
18651;SDS011;9455;54.302;10.124;2023-07-20T11:19:12;5.30;;;0.93;;
18651;SDS011;9455;54.302;10.124;2023-07-20T11:21:41;5.97;;;0.60;;
18651;SDS011;9455;54.302;10.124;2023-07-20T11:24:08;8.60;;;0.87;;
18651;SDS011;9455;54.302;10.124;2023-07-20T11:26:44;0.37;;;0.37;;
18651;SDS011;9455;54.302;10.124;2023-07-20T11:29:12;3.70;;;0.90;;
18651;SDS011;9455;54.302;10.124;2023-07-20T11:31:39;2.60;;;0.80;;
18651;SDS011;9455;54.302;10.124;2023-07-20T11:34:07;2.77;;;0.67;;
18651;SDS011;9455;54.302;10.124;2023-07-20T11:36:36;4.77;;;1.00;;
18651;SDS011;9455;54.302;10.124;2023-07-20T11:39:02;1.13;;;0.60;;
18651;SDS011;9455;54.302;10.124;2023-07-20T11:41:30;2.27;;;0.70;;
18651;SDS011;9455;54.302;10.124;2023-07-20T11:43:59;1.90;;;0.50;;
18651;SDS011;9455;54.302;10.124;2023-07-20T11:46:27;2.60;;;0.40;;
18651;SDS011;9455;54.302;10.124;2023-07-20T11:48:57;4.20;;;0.47;;
18651;SDS011;9455;54.302;10.124;2023-07-20T11:51:26;0.87;;;0.57;;
18651;SDS011;9455;54.302;10.124;2023-07-20T11:53:53;4.43;;;0.77;;
18651;SDS011;9455;54.302;10.124;2023-07-20T11:56:20;5.80;;;0.67;;
18651;SDS011;9455;54.302;10.124;2023-07-20T11:58:49;3.70;;;0.87;;
18651;SDS011;9455;54.302;10.124;2023-07-20T12:01:17;3.10;;;0.60;;
18651;SDS011;9455;54.302;10.124;2023-07-20T12:03:45;1.20;;;0.50;;
18651;SDS011;9455;54.302;10.124;2023-07-20T12:06:12;7.30;;;0.77;;
18651;SDS011;9455;54.302;10.124;2023-07-20T12:08:40;4.53;;;0.90;;
18651;SDS011;9455;54.302;10.124;2023-07-20T12:11:08;3.30;;;0.77;;
18651;SDS011;9455;54.302;10.124;2023-07-20T12:13:35;1.07;;;0.80;;
18651;SDS011;9455;54.302;10.124;2023-07-20T12:16:06;3.67;;;0.70;;
18651;SDS011;9455;54.302;10.124;2023-07-20T12:18:36;0.83;;;0.60;;
18651;SDS011;9455;54.302;10.124;2023-07-20T12:21:03;4.37;;;1.40;;
18651;SDS011;9455;54.302;10.124;2023-07-20T12:23:34;3.13;;;0.80;;
18651;SDS011;9455;54.302;10.124;2023-07-20T12:26:01;2.07;;;0.57;;
18651;SDS011;9455;54.302;10.124;2023-07-20T12:28:28;1.80;;;0.50;;
18651;SDS011;9455;54.302;10.124;2023-07-20T12:30:55;4.23;;;0.50;;
18651;SDS011;9455;54.302;10.124;2023-07-20T12:33:22;0.90;;;0.77;;
18651;SDS011;9455;54.302;10.124;2023-07-20T12:35:50;2.50;;;0.77;;
18651;SDS011;9455;54.302;10.124;2023-07-20T12:38:20;1.87;;;0.47;;
18651;SDS011;9455;54.302;10.124;2023-07-20T12:40:47;4.93;;;0.80;;
18651;SDS011;9455;54.302;10.124;2023-07-20T12:43:14;0.57;;;0.57;;
18651;SDS011;9455;54.302;10.124;2023-07-20T12:45:40;1.23;;;0.80;;
18651;SDS011;9455;54.302;10.124;2023-07-20T12:48:08;3.80;;;0.73;;
18651;SDS011;9455;54.302;10.124;2023-07-20T12:50:35;3.23;;;0.50;;
18651;SDS011;9455;54.302;10.124;2023-07-20T12:53:02;1.03;;;0.43;;
18651;SDS011;9455;54.302;10.124;2023-07-20T12:55:29;1.07;;;0.50;;
18651;SDS011;9455;54.302;10.124;2023-07-20T12:57:56;1.43;;;0.77;;
18651;SDS011;9455;54.302;10.124;2023-07-20T13:00:23;5.80;;;0.70;;
18651;SDS011;9455;54.302;10.124;2023-07-20T13:02:49;5.20;;;1.00;;
18651;SDS011;9455;54.302;10.124;2023-07-20T13:05:16;3.77;;;0.67;;
18651;SDS011;9455;54.302;10.124;2023-07-20T13:07:43;2.50;;;1.00;;
18651;SDS011;9455;54.302;10.124;2023-07-20T13:10:11;4.43;;;0.93;;
18651;SDS011;9455;54.302;10.124;2023-07-20T13:12:38;8.67;;;0.83;;
18651;SDS011;9455;54.302;10.124;2023-07-20T13:15:06;0.50;;;0.50;;
18651;SDS011;9455;54.302;10.124;2023-07-20T13:17:34;1.50;;;0.80;;
18651;SDS011;9455;54.302;10.124;2023-07-20T13:20:01;1.60;;;1.10;;
18651;SDS011;9455;54.302;10.124;2023-07-20T13:22:29;2.03;;;0.57;;
18651;SDS011;9455;54.302;10.124;2023-07-20T13:24:56;2.30;;;0.40;;
18651;SDS011;9455;54.302;10.124;2023-07-20T13:27:24;0.37;;;0.37;;
18651;SDS011;9455;54.302;10.124;2023-07-20T13:29:51;0.47;;;0.30;;
18651;SDS011;9455;54.302;10.124;2023-07-20T13:32:18;2.90;;;0.83;;
18651;SDS011;9455;54.302;10.124;2023-07-20T13:34:45;1.40;;;0.70;;
18651;SDS011;9455;54.302;10.124;2023-07-20T13:37:12;0.90;;;0.60;;
18651;SDS011;9455;54.302;10.124;2023-07-20T13:39:38;1.87;;;0.67;;
18651;SDS011;9455;54.302;10.124;2023-07-20T13:42:05;4.27;;;0.53;;
18651;SDS011;9455;54.302;10.124;2023-07-20T13:44:35;2.40;;;0.70;;
18651;SDS011;9455;54.302;10.124;2023-07-20T13:47:02;3.20;;;0.87;;
18651;SDS011;9455;54.302;10.124;2023-07-20T13:49:31;2.83;;;0.63;;
18651;SDS011;9455;54.302;10.124;2023-07-20T13:51:58;4.97;;;0.77;;
18651;SDS011;9455;54.302;10.124;2023-07-20T13:54:24;1.90;;;0.33;;
18651;SDS011;9455;54.302;10.124;2023-07-20T13:56:51;0.87;;;0.60;;
18651;SDS011;9455;54.302;10.124;2023-07-20T13:59:18;1.83;;;0.60;;
18651;SDS011;9455;54.302;10.124;2023-07-20T14:01:46;5.37;;;0.60;;
18651;SDS011;9455;54.302;10.124;2023-07-20T14:04:12;4.97;;;0.73;;
18651;SDS011;9455;54.302;10.124;2023-07-20T14:06:39;1.20;;;0.83;;
18651;SDS011;9455;54.302;10.124;2023-07-20T14:09:05;2.20;;;0.50;;
18651;SDS011;9455;54.302;10.124;2023-07-20T14:11:32;3.23;;;0.70;;
18651;SDS011;9455;54.302;10.124;2023-07-20T14:13:59;3.40;;;0.50;;
18651;SDS011;9455;54.302;10.124;2023-07-20T14:16:25;2.10;;;0.60;;
18651;SDS011;9455;54.302;10.124;2023-07-20T14:18:53;0.87;;;0.60;;
18651;SDS011;9455;54.302;10.124;2023-07-20T14:21:20;0.50;;;0.40;;
18651;SDS011;9455;54.302;10.124;2023-07-20T14:23:47;1.33;;;0.40;;
18651;SDS011;9455;54.302;10.124;2023-07-20T14:26:15;0.90;;;0.50;;
18651;SDS011;9455;54.302;10.124;2023-07-20T14:28:42;5.33;;;0.80;;
18651;SDS011;9455;54.302;10.124;2023-07-20T14:31:09;2.10;;;0.57;;
18651;SDS011;9455;54.302;10.124;2023-07-20T14:33:36;0.73;;;0.27;;
18651;SDS011;9455;54.302;10.124;2023-07-20T14:36:04;6.43;;;0.90;;
18651;SDS011;9455;54.302;10.124;2023-07-20T14:38:31;3.20;;;0.60;;
18651;SDS011;9455;54.302;10.124;2023-07-20T14:40:59;3.83;;;0.87;;
18651;SDS011;9455;54.302;10.124;2023-07-20T14:43:26;1.73;;;0.83;;
18651;SDS011;9455;54.302;10.124;2023-07-20T14:45:53;10.00;;;0.90;;
18651;SDS011;9455;54.302;10.124;2023-07-20T14:48:19;1.47;;;0.60;;
18651;SDS011;9455;54.302;10.124;2023-07-20T14:50:46;1.03;;;0.60;;
18651;SDS011;9455;54.302;10.124;2023-07-20T14:53:14;0.77;;;0.57;;
18651;SDS011;9455;54.302;10.124;2023-07-20T14:55:41;2.47;;;0.97;;